sensor_id;sensor_type;location;lat;lon;timestamp;pressure;altitude;pressure_sealevel;temperature;humidity
64253;BME280;50592;52.958;-7.470;2022-09-03T00:01:34;99369.72;;;14.45;84.41
64253;BME280;50592;52.958;-7.470;2022-09-03T00:04:24;99364.59;;;14.44;84.41
64253;BME280;50592;52.958;-7.470;2022-09-03T00:07:00;99365.44;;;14.44;84.35
64253;BME280;50592;52.958;-7.470;2022-09-03T00:09:32;99357.47;;;14.51;84.57
64253;BME280;50592;52.958;-7.470;2022-09-03T00:12:23;99356.47;;;14.52;84.22
64253;BME280;50592;52.958;-7.470;2022-09-03T00:17:19;99361.44;;;14.69;84.02
64253;BME280;50592;52.958;-7.470;2022-09-03T00:20:06;99369.00;;;14.65;83.84
64253;BME280;50592;52.958;-7.470;2022-09-03T00:22:37;99369.81;;;14.66;83.80
64253;BME280;50592;52.958;-7.470;2022-09-03T00:25:08;99363.88;;;14.63;84.30
64253;BME280;50592;52.958;-7.470;2022-09-03T00:27:38;99368.63;;;14.68;84.09
64253;BME280;50592;52.958;-7.470;2022-09-03T00:30:09;99355.50;;;14.67;84.26
64253;BME280;50592;52.958;-7.470;2022-09-03T00:32:53;99351.00;;;14.67;84.24
64253;BME280;50592;52.958;-7.470;2022-09-03T00:35:25;99337.91;;;14.66;84.42
64253;BME280;50592;52.958;-7.470;2022-09-03T00:37:52;99320.50;;;14.63;84.45
64253;BME280;50592;52.958;-7.470;2022-09-03T00:43:21;99306.16;;;14.50;84.93
64253;BME280;50592;52.958;-7.470;2022-09-03T00:52:12;99340.31;;;14.54;85.38
64253;BME280;50592;52.958;-7.470;2022-09-03T00:55:04;99317.97;;;14.48;85.32
64253;BME280;50592;52.958;-7.470;2022-09-03T00:57:52;99328.22;;;14.44;85.63
64253;BME280;50592;52.958;-7.470;2022-09-03T01:00:21;99330.47;;;14.47;85.73
64253;BME280;50592;52.958;-7.470;2022-09-03T01:03:11;99335.16;;;14.45;85.69
64253;BME280;50592;52.958;-7.470;2022-09-03T01:05:48;99328.81;;;14.39;85.71
64253;BME280;50592;52.958;-7.470;2022-09-03T01:10:53;99328.47;;;14.21;85.62
64253;BME280;50592;52.958;-7.470;2022-09-03T01:13:32;99334.97;;;14.11;85.74
64253;BME280;50592;52.958;-7.470;2022-09-03T01:30:11;99320.59;;;13.05;87.28
64253;BME280;50592;52.958;-7.470;2022-09-03T01:35:47;99316.06;;;12.98;86.51
64253;BME280;50592;52.958;-7.470;2022-09-03T01:46:33;99296.50;;;12.99;85.17
64253;BME280;50592;52.958;-7.470;2022-09-03T01:49:13;99291.19;;;12.99;84.69
64253;BME280;50592;52.958;-7.470;2022-09-03T01:51:45;99296.81;;;12.89;84.48
64253;BME280;50592;52.958;-7.470;2022-09-03T02:00:02;99300.41;;;13.03;83.79
64253;BME280;50592;52.958;-7.470;2022-09-03T02:02:39;99306.41;;;13.12;83.73
64253;BME280;50592;52.958;-7.470;2022-09-03T02:07:45;99305.81;;;13.17;83.50
64253;BME280;50592;52.958;-7.470;2022-09-03T02:10:17;99313.84;;;13.24;83.23
64253;BME280;50592;52.958;-7.470;2022-09-03T02:12:48;99315.91;;;13.22;83.11
64253;BME280;50592;52.958;-7.470;2022-09-03T02:15:17;99310.13;;;13.18;82.90
64253;BME280;50592;52.958;-7.470;2022-09-03T02:17:46;99306.47;;;13.19;83.40
64253;BME280;50592;52.958;-7.470;2022-09-03T02:20:26;99298.50;;;13.19;83.00
64253;BME280;50592;52.958;-7.470;2022-09-03T02:22:53;99291.31;;;13.13;83.63
64253;BME280;50592;52.958;-7.470;2022-09-03T02:25:23;99300.66;;;13.09;83.72
64253;BME280;50592;52.958;-7.470;2022-09-03T02:27:54;99305.16;;;13.08;84.03
64253;BME280;50592;52.958;-7.470;2022-09-03T02:30:19;99314.94;;;13.08;84.25
64253;BME280;50592;52.958;-7.470;2022-09-03T02:32:45;99303.69;;;13.06;84.10
64253;BME280;50592;52.958;-7.470;2022-09-03T02:35:12;99301.03;;;13.06;84.45
64253;BME280;50592;52.958;-7.470;2022-09-03T02:37:38;99310.53;;;13.15;84.37
64253;BME280;50592;52.958;-7.470;2022-09-03T02:40:03;99305.22;;;13.15;84.40
64253;BME280;50592;52.958;-7.470;2022-09-03T02:42:33;99306.84;;;13.16;84.33
64253;BME280;50592;52.958;-7.470;2022-09-03T02:45:22;99304.38;;;13.14;84.36
64253;BME280;50592;52.958;-7.470;2022-09-03T02:47:51;99298.88;;;13.16;84.36
64253;BME280;50592;52.958;-7.470;2022-09-03T02:50:18;99304.84;;;13.18;84.18
64253;BME280;50592;52.958;-7.470;2022-09-03T02:52:44;99303.63;;;13.21;84.54
64253;BME280;50592;52.958;-7.470;2022-09-03T02:55:09;99298.13;;;13.22;84.17
64253;BME280;50592;52.958;-7.470;2022-09-03T02:57:35;99298.97;;;13.23;84.22
64253;BME280;50592;52.958;-7.470;2022-09-03T03:00:02;99305.91;;;13.24;84.36
64253;BME280;50592;52.958;-7.470;2022-09-03T03:02:28;99293.06;;;13.27;84.13
64253;BME280;50592;52.958;-7.470;2022-09-03T03:04:54;99298.38;;;13.27;84.24
64253;BME280;50592;52.958;-7.470;2022-09-03T03:07:20;99300.41;;;13.25;84.35
64253;BME280;50592;52.958;-7.470;2022-09-03T03:09:45;99297.94;;;13.24;84.30
64253;BME280;50592;52.958;-7.470;2022-09-03T03:12:11;99297.06;;;13.17;84.15
64253;BME280;50592;52.958;-7.470;2022-09-03T03:14:37;99301.91;;;13.13;84.61
64253;BME280;50592;52.958;-7.470;2022-09-03T03:17:03;99295.97;;;13.11;84.83
64253;BME280;50592;52.958;-7.470;2022-09-03T03:19:28;99296.22;;;13.16;84.45
64253;BME280;50592;52.958;-7.470;2022-09-03T03:21:54;99285.63;;;13.16;84.77
64253;BME280;50592;52.958;-7.470;2022-09-03T03:24:21;99290.75;;;13.18;83.98
64253;BME280;50592;52.958;-7.470;2022-09-03T03:26:46;99291.75;;;13.17;84.22
64253;BME280;50592;52.958;-7.470;2022-09-03T03:29:16;99288.28;;;13.16;84.10
64253;BME280;50592;52.958;-7.470;2022-09-03T03:31:42;99296.03;;;13.18;84.25
64253;BME280;50592;52.958;-7.470;2022-09-03T03:34:08;99297.69;;;13.19;83.99
64253;BME280;50592;52.958;-7.470;2022-09-03T03:36:34;99294.41;;;13.17;84.20
64253;BME280;50592;52.958;-7.470;2022-09-03T03:39:00;99288.47;;;13.14;83.93
64253;BME280;50592;52.958;-7.470;2022-09-03T03:41:28;99287.88;;;13.19;84.16
64253;BME280;50592;52.958;-7.470;2022-09-03T03:43:57;99279.69;;;13.14;84.00
64253;BME280;50592;52.958;-7.470;2022-09-03T03:46:24;99277.41;;;13.11;84.34
64253;BME280;50592;52.958;-7.470;2022-09-03T03:48:53;99276.97;;;13.07;84.50
64253;BME280;50592;52.958;-7.470;2022-09-03T03:51:19;99274.31;;;13.07;84.43
64253;BME280;50592;52.958;-7.470;2022-09-03T03:53:45;99282.03;;;13.02;84.39
64253;BME280;50592;52.958;-7.470;2022-09-03T03:56:13;99284.22;;;12.98;84.33
64253;BME280;50592;52.958;-7.470;2022-09-03T03:58:40;99272.19;;;12.96;84.67
64253;BME280;50592;52.958;-7.470;2022-09-03T04:01:09;99266.69;;;12.97;84.81
64253;BME280;50592;52.958;-7.470;2022-09-03T04:03:36;99272.81;;;12.98;84.73
64253;BME280;50592;52.958;-7.470;2022-09-03T04:06:02;99280.59;;;12.99;84.71
64253;BME280;50592;52.958;-7.470;2022-09-03T04:08:29;99275.28;;;12.99;84.60
64253;BME280;50592;52.958;-7.470;2022-09-03T04:11:00;99278.13;;;12.98;84.92
64253;BME280;50592;52.958;-7.470;2022-09-03T04:13:30;99273.63;;;12.98;84.52
64253;BME280;50592;52.958;-7.470;2022-09-03T04:16:02;99273.00;;;12.96;84.36
64253;BME280;50592;52.958;-7.470;2022-09-03T04:18:29;99273.38;;;12.93;84.75
64253;BME280;50592;52.958;-7.470;2022-09-03T04:21:03;99260.13;;;12.93;84.60
64253;BME280;50592;52.958;-7.470;2022-09-03T04:23:34;99271.53;;;12.94;84.54
64253;BME280;50592;52.958;-7.470;2022-09-03T04:26:01;99263.75;;;12.92;84.37
64253;BME280;50592;52.958;-7.470;2022-09-03T04:28:27;99262.25;;;12.83;84.54
64253;BME280;50592;52.958;-7.470;2022-09-03T04:30:54;99261.22;;;12.84;84.49
64253;BME280;50592;52.958;-7.470;2022-09-03T04:33:24;99265.72;;;12.83;84.72
64253;BME280;50592;52.958;-7.470;2022-09-03T04:35:51;99268.81;;;12.87;84.82
64253;BME280;50592;52.958;-7.470;2022-09-03T04:38:16;99258.84;;;12.89;84.98
64253;BME280;50592;52.958;-7.470;2022-09-03T04:40:42;99265.59;;;12.92;84.98
64253;BME280;50592;52.958;-7.470;2022-09-03T04:43:08;99268.88;;;12.94;84.67
64253;BME280;50592;52.958;-7.470;2022-09-03T04:45:33;99261.94;;;12.93;84.54
64253;BME280;50592;52.958;-7.470;2022-09-03T04:48:01;99252.72;;;12.88;84.72
64253;BME280;50592;52.958;-7.470;2022-09-03T04:50:28;99270.09;;;12.91;84.99
64253;BME280;50592;52.958;-7.470;2022-09-03T04:53:02;99266.41;;;12.92;84.79
64253;BME280;50592;52.958;-7.470;2022-09-03T04:55:33;99251.06;;;12.87;84.77
64253;BME280;50592;52.958;-7.470;2022-09-03T04:57:59;99251.44;;;12.84;85.01
64253;BME280;50592;52.958;-7.470;2022-09-03T05:00:25;99241.03;;;12.83;85.26
64253;BME280;50592;52.958;-7.470;2022-09-03T05:02:51;99249.38;;;12.80;85.33
64253;BME280;50592;52.958;-7.470;2022-09-03T05:05:17;99253.47;;;12.82;85.27
64253;BME280;50592;52.958;-7.470;2022-09-03T05:07:43;99249.88;;;12.90;85.31
64253;BME280;50592;52.958;-7.470;2022-09-03T05:10:11;99240.91;;;12.91;85.38
64253;BME280;50592;52.958;-7.470;2022-09-03T05:13:00;99247.41;;;12.88;84.97
64253;BME280;50592;52.958;-7.470;2022-09-03T05:15:27;99254.94;;;12.85;85.30
64253;BME280;50592;52.958;-7.470;2022-09-03T05:17:59;99262.25;;;12.83;85.05
64253;BME280;50592;52.958;-7.470;2022-09-03T05:20:30;99271.47;;;12.87;85.25
64253;BME280;50592;52.958;-7.470;2022-09-03T05:23:00;99280.50;;;12.93;85.17
64253;BME280;50592;52.958;-7.470;2022-09-03T05:25:26;99266.59;;;12.90;85.08
64253;BME280;50592;52.958;-7.470;2022-09-03T05:27:52;99260.47;;;12.90;84.79
64253;BME280;50592;52.958;-7.470;2022-09-03T05:30:18;99264.34;;;12.87;84.89
64253;BME280;50592;52.958;-7.470;2022-09-03T05:32:47;99264.72;;;12.84;84.57
64253;BME280;50592;52.958;-7.470;2022-09-03T05:35:13;99266.13;;;12.80;84.65
64253;BME280;50592;52.958;-7.470;2022-09-03T05:37:39;99272.72;;;12.69;84.80
64253;BME280;50592;52.958;-7.470;2022-09-03T05:40:06;99270.56;;;12.58;85.38
64253;BME280;50592;52.958;-7.470;2022-09-03T05:42:34;99271.88;;;12.47;86.28
64253;BME280;50592;52.958;-7.470;2022-09-03T05:45:05;99265.75;;;12.46;86.70
64253;BME280;50592;52.958;-7.470;2022-09-03T05:47:32;99271.41;;;12.43;86.69
64253;BME280;50592;52.958;-7.470;2022-09-03T05:49:58;99282.09;;;12.35;87.06
64253;BME280;50592;52.958;-7.470;2022-09-03T05:52:24;99274.91;;;12.28;87.44
64253;BME280;50592;52.958;-7.470;2022-09-03T05:54:50;99283.88;;;12.27;87.95
64253;BME280;50592;52.958;-7.470;2022-09-03T05:57:16;99274.06;;;12.28;87.71
64253;BME280;50592;52.958;-7.470;2022-09-03T05:59:42;99278.75;;;12.26;87.69
64253;BME280;50592;52.958;-7.470;2022-09-03T06:02:07;99277.81;;;12.19;88.15
64253;BME280;50592;52.958;-7.470;2022-09-03T06:04:33;99273.34;;;12.19;88.72
64253;BME280;50592;52.958;-7.470;2022-09-03T06:06:59;99273.16;;;12.21;88.62
64253;BME280;50592;52.958;-7.470;2022-09-03T06:09:24;99276.66;;;12.21;88.41
64253;BME280;50592;52.958;-7.470;2022-09-03T06:11:50;99276.28;;;12.24;88.72
64253;BME280;50592;52.958;-7.470;2022-09-03T06:14:18;99276.53;;;12.30;88.54
64253;BME280;50592;52.958;-7.470;2022-09-03T06:16:45;99277.63;;;12.35;88.40
64253;BME280;50592;52.958;-7.470;2022-09-03T06:19:14;99278.91;;;12.39;88.18
64253;BME280;50592;52.958;-7.470;2022-09-03T06:21:42;99277.09;;;12.40;88.13
64253;BME280;50592;52.958;-7.470;2022-09-03T06:24:13;99280.19;;;12.44;88.30
64253;BME280;50592;52.958;-7.470;2022-09-03T06:26:40;99281.63;;;12.46;88.11
64253;BME280;50592;52.958;-7.470;2022-09-03T06:29:05;99277.78;;;12.49;87.89
64253;BME280;50592;52.958;-7.470;2022-09-03T06:31:32;99281.00;;;12.44;88.13
64253;BME280;50592;52.958;-7.470;2022-09-03T06:34:00;99279.91;;;12.38;88.11
64253;BME280;50592;52.958;-7.470;2022-09-03T06:36:26;99293.06;;;12.32;88.25
64253;BME280;50592;52.958;-7.470;2022-09-03T06:38:54;99299.13;;;12.25;88.81
64253;BME280;50592;52.958;-7.470;2022-09-03T06:41:25;99291.16;;;12.25;89.45
64253;BME280;50592;52.958;-7.470;2022-09-03T06:43:56;99294.09;;;12.31;89.66
64253;BME280;50592;52.958;-7.470;2022-09-03T06:46:33;99290.44;;;12.32;89.42
64253;BME280;50592;52.958;-7.470;2022-09-03T06:49:00;99288.59;;;12.32;89.46
64253;BME280;50592;52.958;-7.470;2022-09-03T06:51:28;99291.16;;;12.40;89.41
64253;BME280;50592;52.958;-7.470;2022-09-03T06:53:59;99289.41;;;12.48;89.43
64253;BME280;50592;52.958;-7.470;2022-09-03T06:56:25;99293.69;;;12.49;88.84
64253;BME280;50592;52.958;-7.470;2022-09-03T06:58:53;99294.34;;;12.51;89.00
64253;BME280;50592;52.958;-7.470;2022-09-03T07:01:24;99297.81;;;12.51;88.87
64253;BME280;50592;52.958;-7.470;2022-09-03T07:03:55;99301.06;;;12.53;89.12
64253;BME280;50592;52.958;-7.470;2022-09-03T07:06:25;99296.25;;;12.57;89.29
64253;BME280;50592;52.958;-7.470;2022-09-03T07:08:54;99283.44;;;12.61;88.96
64253;BME280;50592;52.958;-7.470;2022-09-03T07:11:23;99283.72;;;12.66;88.88
64253;BME280;50592;52.958;-7.470;2022-09-03T07:13:51;99287.34;;;12.65;88.59
64253;BME280;50592;52.958;-7.470;2022-09-03T07:16:26;99286.19;;;12.68;88.75
64253;BME280;50592;52.958;-7.470;2022-09-03T07:18:53;99283.72;;;12.66;88.96
64253;BME280;50592;52.958;-7.470;2022-09-03T07:21:21;99287.91;;;12.60;88.76
64253;BME280;50592;52.958;-7.470;2022-09-03T07:23:48;99286.28;;;12.59;89.50
64253;BME280;50592;52.958;-7.470;2022-09-03T07:26:20;99286.75;;;12.48;89.57
64253;BME280;50592;52.958;-7.470;2022-09-03T07:28:47;99292.34;;;12.38;90.18
64253;BME280;50592;52.958;-7.470;2022-09-03T07:31:39;99286.56;;;12.34;90.77
64253;BME280;50592;52.958;-7.470;2022-09-03T07:34:07;99294.09;;;12.31;91.55
64253;BME280;50592;52.958;-7.470;2022-09-03T07:36:41;99292.25;;;12.31;91.50
64253;BME280;50592;52.958;-7.470;2022-09-03T07:39:09;99298.75;;;12.28;91.60
64253;BME280;50592;52.958;-7.470;2022-09-03T07:41:35;99305.94;;;12.35;91.59
64253;BME280;50592;52.958;-7.470;2022-09-03T07:44:02;99296.84;;;12.37;91.54
64253;BME280;50592;52.958;-7.470;2022-09-03T07:46:32;99298.09;;;12.42;91.55
64253;BME280;50592;52.958;-7.470;2022-09-03T07:48:59;99296.09;;;12.44;91.36
64253;BME280;50592;52.958;-7.470;2022-09-03T07:51:33;99300.38;;;12.45;91.36
64253;BME280;50592;52.958;-7.470;2022-09-03T07:54:02;99294.63;;;12.41;91.07
64253;BME280;50592;52.958;-7.470;2022-09-03T07:56:29;99296.19;;;12.35;91.24
64253;BME280;50592;52.958;-7.470;2022-09-03T07:58:59;99300.00;;;12.33;91.73
64253;BME280;50592;52.958;-7.470;2022-09-03T08:01:27;99294.38;;;12.36;91.60
64253;BME280;50592;52.958;-7.470;2022-09-03T08:03:54;99287.22;;;12.36;91.97
64253;BME280;50592;52.958;-7.470;2022-09-03T08:06:24;99298.66;;;12.37;91.94
64253;BME280;50592;52.958;-7.470;2022-09-03T08:08:57;99293.91;;;12.32;91.85
64253;BME280;50592;52.958;-7.470;2022-09-03T08:11:25;99292.00;;;12.26;92.23
64253;BME280;50592;52.958;-7.470;2022-09-03T08:13:59;99290.34;;;12.25;92.36
64253;BME280;50592;52.958;-7.470;2022-09-03T08:16:29;99296.00;;;12.22;92.86
64253;BME280;50592;52.958;-7.470;2022-09-03T08:18:55;99296.00;;;12.22;92.97
64253;BME280;50592;52.958;-7.470;2022-09-03T08:21:22;99295.81;;;12.23;93.24
64253;BME280;50592;52.958;-7.470;2022-09-03T08:23:51;99294.47;;;12.27;92.91
64253;BME280;50592;52.958;-7.470;2022-09-03T08:26:18;99287.78;;;12.32;93.15
64253;BME280;50592;52.958;-7.470;2022-09-03T08:28:45;99292.97;;;12.40;93.00
64253;BME280;50592;52.958;-7.470;2022-09-03T08:31:21;99293.25;;;12.45;93.05
64253;BME280;50592;52.958;-7.470;2022-09-03T08:33:52;99293.06;;;12.47;92.93
64253;BME280;50592;52.958;-7.470;2022-09-03T08:36:27;99289.41;;;12.48;93.34
64253;BME280;50592;52.958;-7.470;2022-09-03T08:38:56;99284.28;;;12.46;93.29
64253;BME280;50592;52.958;-7.470;2022-09-03T08:44:35;99291.22;;;12.47;94.28
64253;BME280;50592;52.958;-7.470;2022-09-03T08:55:30;99285.63;;;12.57;94.42
64253;BME280;50592;52.958;-7.470;2022-09-03T08:58:08;99286.28;;;12.59;94.90
64253;BME280;50592;52.958;-7.470;2022-09-03T09:00:54;99275.88;;;12.58;94.90
64253;BME280;50592;52.958;-7.470;2022-09-03T09:09:00;99263.16;;;12.53;95.99
64253;BME280;50592;52.958;-7.470;2022-09-03T09:14:27;99251.84;;;12.44;96.66
64253;BME280;50592;52.958;-7.470;2022-09-03T09:22:45;99241.28;;;12.29;98.48
64253;BME280;50592;52.958;-7.470;2022-09-03T09:25:15;99239.44;;;12.30;98.71
64253;BME280;50592;52.958;-7.470;2022-09-03T09:27:50;99232.41;;;12.37;98.72
64253;BME280;50592;52.958;-7.470;2022-09-03T09:30:17;99227.56;;;12.40;98.83
64253;BME280;50592;52.958;-7.470;2022-09-03T09:32:44;99236.47;;;12.55;99.06
64253;BME280;50592;52.958;-7.470;2022-09-03T09:35:13;99235.34;;;12.64;98.86
64253;BME280;50592;52.958;-7.470;2022-09-03T09:37:54;99228.34;;;12.78;98.25
64253;BME280;50592;52.958;-7.470;2022-09-03T09:43:09;99246.28;;;12.98;97.79
64253;BME280;50592;52.958;-7.470;2022-09-03T09:45:38;99246.13;;;13.06;97.25
64253;BME280;50592;52.958;-7.470;2022-09-03T09:50:42;99252.94;;;13.15;96.52
64253;BME280;50592;52.958;-7.470;2022-09-03T09:53:09;99254.03;;;13.21;96.24
64253;BME280;50592;52.958;-7.470;2022-09-03T09:55:54;99260.19;;;13.22;95.97
64253;BME280;50592;52.958;-7.470;2022-09-03T09:58:21;99261.81;;;13.23;95.71
64253;BME280;50592;52.958;-7.470;2022-09-03T10:00:56;99267.31;;;13.21;95.13
64253;BME280;50592;52.958;-7.470;2022-09-03T10:03:23;99271.59;;;13.22;94.92
64253;BME280;50592;52.958;-7.470;2022-09-03T10:06:08;99276.72;;;13.24;94.48
64253;BME280;50592;52.958;-7.470;2022-09-03T10:09:05;99268.56;;;13.25;94.46
64253;BME280;50592;52.958;-7.470;2022-09-03T10:11:33;99267.56;;;13.26;93.89
64253;BME280;50592;52.958;-7.470;2022-09-03T10:14:15;99270.44;;;13.32;93.82
64253;BME280;50592;52.958;-7.470;2022-09-03T10:16:45;99263.94;;;13.34;93.59
64253;BME280;50592;52.958;-7.470;2022-09-03T10:19:23;99251.47;;;13.35;93.19
64253;BME280;50592;52.958;-7.470;2022-09-03T10:22:02;99255.78;;;13.36;92.68
64253;BME280;50592;52.958;-7.470;2022-09-03T10:24:51;99244.78;;;13.39;92.92
64253;BME280;50592;52.958;-7.470;2022-09-03T10:27:21;99232.38;;;13.46;92.94
64253;BME280;50592;52.958;-7.470;2022-09-03T10:29:48;99233.69;;;13.57;92.60
64253;BME280;50592;52.958;-7.470;2022-09-03T10:52:39;99240.44;;;13.53;93.04
64253;BME280;50592;52.958;-7.470;2022-09-03T11:00:32;99233.84;;;13.49;93.56
64253;BME280;50592;52.958;-7.470;2022-09-03T11:08:31;99222.75;;;13.67;93.06
64253;BME280;50592;52.958;-7.470;2022-09-03T11:11:11;99231.75;;;13.66;92.81
64253;BME280;50592;52.958;-7.470;2022-09-03T11:16:16;99220.28;;;13.66;93.16
64253;BME280;50592;52.958;-7.470;2022-09-03T11:18:54;99223.09;;;13.57;93.57
64253;BME280;50592;52.958;-7.470;2022-09-03T11:21:25;99222.59;;;13.47;94.12
64253;BME280;50592;52.958;-7.470;2022-09-03T11:24:08;99220.03;;;13.32;93.64
64253;BME280;50592;52.958;-7.470;2022-09-03T11:26:39;99230.53;;;13.18;94.11
64253;BME280;50592;52.958;-7.470;2022-09-03T11:32:07;99229.03;;;13.09;94.71
64253;BME280;50592;52.958;-7.470;2022-09-03T11:34:49;99218.19;;;13.03;94.86
64253;BME280;50592;52.958;-7.470;2022-09-03T11:40:05;99221.22;;;13.00;95.23
64253;BME280;50592;52.958;-7.470;2022-09-03T11:42:41;99227.75;;;13.05;95.63
64253;BME280;50592;52.958;-7.470;2022-09-03T11:45:34;99227.81;;;13.11;95.43
64253;BME280;50592;52.958;-7.470;2022-09-03T11:48:01;99221.88;;;13.09;96.03
64253;BME280;50592;52.958;-7.470;2022-09-03T11:50:31;99220.44;;;13.07;96.04
64253;BME280;50592;52.958;-7.470;2022-09-03T11:53:24;99226.78;;;13.06;96.17
64253;BME280;50592;52.958;-7.470;2022-09-03T11:56:08;99228.84;;;13.10;96.18
64253;BME280;50592;52.958;-7.470;2022-09-03T11:58:38;99229.91;;;13.16;96.56
64253;BME280;50592;52.958;-7.470;2022-09-03T12:01:10;99230.41;;;13.26;96.22
64253;BME280;50592;52.958;-7.470;2022-09-03T12:03:57;99226.53;;;13.29;96.27
64253;BME280;50592;52.958;-7.470;2022-09-03T12:06:45;99231.47;;;13.32;96.07
64253;BME280;50592;52.958;-7.470;2022-09-03T12:15:23;99225.53;;;13.59;96.67
64253;BME280;50592;52.958;-7.470;2022-09-03T12:18:14;99213.16;;;13.66;96.69
64253;BME280;50592;52.958;-7.470;2022-09-03T12:23:30;99216.78;;;13.58;96.70
64253;BME280;50592;52.958;-7.470;2022-09-03T12:26:07;99209.59;;;13.52;96.88
64253;BME280;50592;52.958;-7.470;2022-09-03T12:28:40;99211.03;;;13.55;97.72
64253;BME280;50592;52.958;-7.470;2022-09-03T12:34:02;99182.72;;;13.69;98.32
64253;BME280;50592;52.958;-7.470;2022-09-03T12:36:41;99183.59;;;13.76;98.38
64253;BME280;50592;52.958;-7.470;2022-09-03T12:39:16;99185.22;;;13.77;98.72
64253;BME280;50592;52.958;-7.470;2022-09-03T12:47:26;99182.69;;;13.62;98.90
64253;BME280;50592;52.958;-7.470;2022-09-03T12:49:56;99181.19;;;13.52;99.03
64253;BME280;50592;52.958;-7.470;2022-09-03T12:55:33;99178.75;;;13.51;98.78
64253;BME280;50592;52.958;-7.470;2022-09-03T12:58:30;99180.31;;;13.45;99.37
64253;BME280;50592;52.958;-7.470;2022-09-03T13:01:20;99185.78;;;13.37;99.29
64253;BME280;50592;52.958;-7.470;2022-09-03T13:03:56;99178.44;;;13.39;99.29
64253;BME280;50592;52.958;-7.470;2022-09-03T13:06:32;99172.53;;;13.44;99.38
64253;BME280;50592;52.958;-7.470;2022-09-03T13:09:04;99168.69;;;13.46;99.01
64253;BME280;50592;52.958;-7.470;2022-09-03T13:11:33;99167.66;;;13.47;99.49
64253;BME280;50592;52.958;-7.470;2022-09-03T13:14:06;99172.75;;;13.42;98.84
64253;BME280;50592;52.958;-7.470;2022-09-03T13:19:49;99158.25;;;13.45;98.54
64253;BME280;50592;52.958;-7.470;2022-09-03T13:22:24;99162.19;;;13.20;98.68
64253;BME280;50592;52.958;-7.470;2022-09-03T13:34:04;99166.03;;;13.18;98.40
64253;BME280;50592;52.958;-7.470;2022-09-03T13:39:05;99160.06;;;13.37;97.94
64253;BME280;50592;52.958;-7.470;2022-09-03T13:42:05;99161.50;;;13.40;97.62
64253;BME280;50592;52.958;-7.470;2022-09-03T13:44:40;99151.91;;;13.39;98.38
64253;BME280;50592;52.958;-7.470;2022-09-03T13:49:46;99144.16;;;13.44;99.02
64253;BME280;50592;52.958;-7.470;2022-09-03T13:52:40;99133.41;;;13.52;99.64
64253;BME280;50592;52.958;-7.470;2022-09-03T13:55:23;99129.56;;;13.62;99.74
64253;BME280;50592;52.958;-7.470;2022-09-03T13:57:56;99128.00;;;13.68;100.00
64253;BME280;50592;52.958;-7.470;2022-09-03T14:03:40;99148.84;;;13.71;100.00
64253;BME280;50592;52.958;-7.470;2022-09-03T14:06:18;99128.38;;;13.71;100.00
64253;BME280;50592;52.958;-7.470;2022-09-03T14:21:35;99114.41;;;13.49;100.00
64253;BME280;50592;52.958;-7.470;2022-09-03T14:24:19;99112.72;;;13.48;100.00
64253;BME280;50592;52.958;-7.470;2022-09-03T14:26:57;99114.63;;;13.54;100.00
64253;BME280;50592;52.958;-7.470;2022-09-03T14:29:30;99106.91;;;13.59;100.00
64253;BME280;50592;52.958;-7.470;2022-09-03T14:39:54;99106.31;;;13.64;100.00
64253;BME280;50592;52.958;-7.470;2022-09-03T14:42:35;99096.94;;;13.68;100.00
64253;BME280;50592;52.958;-7.470;2022-09-03T14:45:17;99098.97;;;13.66;100.00
64253;BME280;50592;52.958;-7.470;2022-09-03T15:07:30;99069.84;;;13.93;100.00
64253;BME280;50592;52.958;-7.470;2022-09-03T15:10:17;99073.72;;;13.97;100.00
64253;BME280;50592;52.958;-7.470;2022-09-03T15:12:51;99084.38;;;14.04;100.00
64253;BME280;50592;52.958;-7.470;2022-09-03T15:29:50;99078.50;;;14.36;100.00
64253;BME280;50592;52.958;-7.470;2022-09-03T15:35:42;99082.19;;;14.55;100.00
64253;BME280;50592;52.958;-7.470;2022-09-03T15:38:11;99077.69;;;14.62;100.00
64253;BME280;50592;52.958;-7.470;2022-09-03T15:43:18;99084.03;;;14.68;100.00
64253;BME280;50592;52.958;-7.470;2022-09-03T15:48:36;99089.34;;;14.75;100.00
64253;BME280;50592;52.958;-7.470;2022-09-03T15:51:17;99089.13;;;14.76;100.00
64253;BME280;50592;52.958;-7.470;2022-09-03T15:53:48;99081.59;;;14.67;100.00
64253;BME280;50592;52.958;-7.470;2022-09-03T15:56:25;99093.66;;;14.76;100.00
64253;BME280;50592;52.958;-7.470;2022-09-03T16:02:15;99081.59;;;14.67;100.00
64253;BME280;50592;52.958;-7.470;2022-09-03T16:15:17;99087.84;;;13.98;100.00
64253;BME280;50592;52.958;-7.470;2022-09-03T16:20:42;99085.56;;;13.88;100.00
64253;BME280;50592;52.958;-7.470;2022-09-03T16:23:20;99076.16;;;13.92;100.00
64253;BME280;50592;52.958;-7.470;2022-09-03T16:26:03;99072.31;;;13.95;100.00
64253;BME280;50592;52.958;-7.470;2022-09-03T16:28:47;99071.72;;;13.99;100.00
64253;BME280;50592;52.958;-7.470;2022-09-03T16:31:37;99074.16;;;14.01;100.00
64253;BME280;50592;52.958;-7.470;2022-09-03T16:34:23;99069.47;;;14.10;100.00
64253;BME280;50592;52.958;-7.470;2022-09-03T16:42:36;99074.44;;;14.33;100.00
64253;BME280;50592;52.958;-7.470;2022-09-03T16:48:31;99087.09;;;14.51;100.00
64253;BME280;50592;52.958;-7.470;2022-09-03T17:25:51;99082.53;;;15.27;98.75
64253;BME280;50592;52.958;-7.470;2022-09-03T17:36:47;99100.09;;;15.48;98.42
64253;BME280;50592;52.958;-7.470;2022-09-03T17:41:46;99114.03;;;15.43;98.27
64253;BME280;50592;52.958;-7.470;2022-09-03T17:49:55;99108.34;;;15.26;98.31
64253;BME280;50592;52.958;-7.470;2022-09-03T17:55:28;99098.53;;;15.27;97.83
64253;BME280;50592;52.958;-7.470;2022-09-03T18:00:38;99121.06;;;15.17;97.91
64253;BME280;50592;52.958;-7.470;2022-09-03T18:05:47;99128.63;;;15.07;97.39
64253;BME280;50592;52.958;-7.470;2022-09-03T18:08:21;99125.19;;;14.99;97.43
64253;BME280;50592;52.958;-7.470;2022-09-03T18:11:06;99132.56;;;14.91;97.28
64253;BME280;50592;52.958;-7.470;2022-09-03T18:16:29;99134.75;;;14.73;97.14
64253;BME280;50592;52.958;-7.470;2022-09-03T18:19:01;99145.00;;;14.70;97.40
64253;BME280;50592;52.958;-7.470;2022-09-03T18:21:32;99145.22;;;14.68;97.05
64253;BME280;50592;52.958;-7.470;2022-09-03T18:24:27;99149.91;;;14.66;96.88